sensor_id;sensor_type;location;lat;lon;timestamp;pressure;altitude;pressure_sealevel;temperature;humidity
71795;BME280;59641;45.188;5.712;2023-01-29T00:00:50;100045.63;;;6.38;52.52
71795;BME280;59641;45.188;5.712;2023-01-29T00:03:15;100051.78;;;6.38;52.66
71795;BME280;59641;45.188;5.712;2023-01-29T00:05:44;100045.25;;;6.41;52.60
71795;BME280;59641;45.188;5.712;2023-01-29T00:08:09;100049.75;;;6.40;52.49
71795;BME280;59641;45.188;5.712;2023-01-29T00:10:34;100050.75;;;6.39;52.60
71795;BME280;59641;45.188;5.712;2023-01-29T00:13:00;100046.28;;;6.40;52.63
71795;BME280;59641;45.188;5.712;2023-01-29T00:15:25;100040.94;;;6.40;52.78
71795;BME280;59641;45.188;5.712;2023-01-29T00:17:50;100055.75;;;6.43;52.66
71795;BME280;59641;45.188;5.712;2023-01-29T00:20:16;100047.75;;;6.43;52.54
71795;BME280;59641;45.188;5.712;2023-01-29T00:22:41;100047.75;;;6.43;52.72
71795;BME280;59641;45.188;5.712;2023-01-29T00:25:07;100051.25;;;6.43;52.66
71795;BME280;59641;45.188;5.712;2023-01-29T00:27:33;100044.88;;;6.44;52.61
71795;BME280;59641;45.188;5.712;2023-01-29T00:29:58;100037.75;;;6.45;52.82
71795;BME280;59641;45.188;5.712;2023-01-29T00:32:36;100043.72;;;6.47;52.77
71795;BME280;59641;45.188;5.712;2023-01-29T00:35:01;100045.38;;;6.48;52.59
71795;BME280;59641;45.188;5.712;2023-01-29T00:37:27;100043.72;;;6.47;52.78
71795;BME280;59641;45.188;5.712;2023-01-29T00:39:52;100045.38;;;6.48;52.76
71795;BME280;59641;45.188;5.712;2023-01-29T00:42:17;100039.22;;;6.47;52.87
71795;BME280;59641;45.188;5.712;2023-01-29T00:45:01;100038.38;;;6.47;52.70
71795;BME280;59641;45.188;5.712;2023-01-29T00:47:26;100035.09;;;6.45;52.62
71795;BME280;59641;45.188;5.712;2023-01-29T00:49:55;100042.41;;;6.43;52.63
71795;BME280;59641;45.188;5.712;2023-01-29T00:52:21;100045.25;;;6.41;52.77
71795;BME280;59641;45.188;5.712;2023-01-29T00:54:54;100040.09;;;6.39;52.77
71795;BME280;59641;45.188;5.712;2023-01-29T00:57:21;100039.91;;;6.41;52.75
71795;BME280;59641;45.188;5.712;2023-01-29T00:59:46;100044.44;;;6.40;52.66
71795;BME280;59641;45.188;5.712;2023-01-29T01:02:13;100052.44;;;6.40;52.88
71795;BME280;59641;45.188;5.712;2023-01-29T01:04:57;100054.28;;;6.40;52.97
71795;BME280;59641;45.188;5.712;2023-01-29T01:07:22;100048.75;;;6.42;52.97
71795;BME280;59641;45.188;5.712;2023-01-29T01:09:49;100057.75;;;6.40;52.85
71795;BME280;59641;45.188;5.712;2023-01-29T01:12:32;100054.91;;;6.42;52.95
71795;BME280;59641;45.188;5.712;2023-01-29T01:14:58;100060.22;;;6.42;52.83
71795;BME280;59641;45.188;5.712;2023-01-29T01:17:24;100061.09;;;6.43;53.01
71795;BME280;59641;45.188;5.712;2023-01-29T01:19:49;100052.22;;;6.42;52.89
71795;BME280;59641;45.188;5.712;2023-01-29T01:22:15;100061.09;;;6.43;53.12
71795;BME280;59641;45.188;5.712;2023-01-29T01:24:40;100056.56;;;6.43;53.20
71795;BME280;59641;45.188;5.712;2023-01-29T01:27:06;100059.25;;;6.43;53.30
71795;BME280;59641;45.188;5.712;2023-01-29T01:29:31;100063.75;;;6.43;53.19
71795;BME280;59641;45.188;5.712;2023-01-29T01:31:57;100069.91;;;6.43;53.21
71795;BME280;59641;45.188;5.712;2023-01-29T01:34:23;100073.56;;;6.42;53.17
71795;BME280;59641;45.188;5.712;2023-01-29T01:36:48;100068.22;;;6.42;53.40
71795;BME280;59641;45.188;5.712;2023-01-29T01:39:13;100065.56;;;6.42;53.32
71795;BME280;59641;45.188;5.712;2023-01-29T01:41:39;100072.06;;;6.39;53.21
71795;BME280;59641;45.188;5.712;2023-01-29T01:44:04;100072.06;;;6.39;53.34
71795;BME280;59641;45.188;5.712;2023-01-29T01:46:36;100071.25;;;6.39;53.43
71795;BME280;59641;45.188;5.712;2023-01-29T01:49:07;100073.91;;;6.39;53.36
71795;BME280;59641;45.188;5.712;2023-01-29T01:51:39;100072.44;;;6.36;53.22
71795;BME280;59641;45.188;5.712;2023-01-29T01:54:10;100072.78;;;6.33;53.14
71795;BME280;59641;45.188;5.712;2023-01-29T01:56:41;100073.31;;;6.29;53.19
71795;BME280;59641;45.188;5.712;2023-01-29T01:59:10;100069.16;;;6.26;53.21
71795;BME280;59641;45.188;5.712;2023-01-29T02:01:37;100073.84;;;6.24;52.97
71795;BME280;59641;45.188;5.712;2023-01-29T02:04:14;100071.53;;;6.21;53.17
71795;BME280;59641;45.188;5.712;2023-01-29T02:07:02;100076.22;;;6.11;53.20
71795;BME280;59641;45.188;5.712;2023-01-29T02:10:05;100077.22;;;6.10;53.41
71795;BME280;59641;45.188;5.712;2023-01-29T02:12:32;100072.06;;;6.08;53.45
71795;BME280;59641;45.188;5.712;2023-01-29T02:14:58;100073.91;;;6.08;53.32
71795;BME280;59641;45.188;5.712;2023-01-29T02:17:23;100071.59;;;6.05;53.40
71795;BME280;59641;45.188;5.712;2023-01-29T02:20:38;100084.09;;;6.04;53.68
71795;BME280;59641;45.188;5.712;2023-01-29T02:32:31;100095.22;;;6.08;53.56
71795;BME280;59641;45.188;5.712;2023-01-29T02:35:09;100101.06;;;6.03;53.60
71795;BME280;59641;45.188;5.712;2023-01-29T02:40:43;100112.53;;;6.04;53.69
71795;BME280;59641;45.188;5.712;2023-01-29T02:45:53;100113.22;;;6.06;53.83
71795;BME280;59641;45.188;5.712;2023-01-29T02:48:23;100112.03;;;6.08;53.78
71795;BME280;59641;45.188;5.712;2023-01-29T02:51:04;100116.03;;;6.12;53.81
71795;BME280;59641;45.188;5.712;2023-01-29T02:56:23;100115.84;;;6.14;53.80
71795;BME280;59641;45.188;5.712;2023-01-29T02:59:00;100110.69;;;6.12;53.50
71795;BME280;59641;45.188;5.712;2023-01-29T03:01:32;100120.38;;;6.13;53.67
71795;BME280;59641;45.188;5.712;2023-01-29T03:04:07;100128.53;;;6.12;53.70
71795;BME280;59641;45.188;5.712;2023-01-29T03:06:38;100131.19;;;6.12;53.58
71795;BME280;59641;45.188;5.712;2023-01-29T03:09:45;100131.19;;;6.12;53.81
71795;BME280;59641;45.188;5.712;2023-01-29T03:12:20;100142.50;;;6.14;53.75
71795;BME280;59641;45.188;5.712;2023-01-29T03:15:00;100141.84;;;6.12;53.65
71795;BME280;59641;45.188;5.712;2023-01-29T03:17:44;100146.34;;;6.11;53.76
71795;BME280;59641;45.188;5.712;2023-01-29T03:20:16;100145.34;;;6.12;53.74
71795;BME280;59641;45.188;5.712;2023-01-29T03:22:46;100148.00;;;6.12;53.65
71795;BME280;59641;45.188;5.712;2023-01-29T03:25:14;100147.69;;;6.07;53.90
71795;BME280;59641;45.188;5.712;2023-01-29T03:28:03;100150.34;;;6.07;53.80
71795;BME280;59641;45.188;5.712;2023-01-29T03:30:51;100139.84;;;6.06;54.00
71795;BME280;59641;45.188;5.712;2023-01-29T03:33:52;100154.03;;;6.06;53.89
71795;BME280;59641;45.188;5.712;2023-01-29T03:36:33;100146.84;;;6.07;53.88
71795;BME280;59641;45.188;5.712;2023-01-29T03:39:05;100147.53;;;6.09;53.78
71795;BME280;59641;45.188;5.712;2023-01-29T03:41:37;100147.38;;;6.02;53.90
71795;BME280;59641;45.188;5.712;2023-01-29T03:48:04;100142.41;;;5.99;54.14
71795;BME280;59641;45.188;5.712;2023-01-29T03:50:30;100147.72;;;5.99;54.19
71795;BME280;59641;45.188;5.712;2023-01-29T03:58:43;100165.50;;;5.98;53.99
71795;BME280;59641;45.188;5.712;2023-01-29T04:03:42;100169.66;;;5.93;54.08
71795;BME280;59641;45.188;5.712;2023-01-29T04:06:21;100172.34;;;5.93;54.17
71795;BME280;59641;45.188;5.712;2023-01-29T04:09:03;100174.88;;;5.94;54.17
71795;BME280;59641;45.188;5.712;2023-01-29T04:11:30;100177.53;;;5.94;54.18
71795;BME280;59641;45.188;5.712;2023-01-29T04:13:58;100175.69;;;5.95;54.24
71795;BME280;59641;45.188;5.712;2023-01-29T04:16:32;100178.19;;;5.96;54.37
71795;BME280;59641;45.188;5.712;2023-01-29T04:18:59;100180.88;;;5.96;54.23
71795;BME280;59641;45.188;5.712;2023-01-29T04:21:25;100187.00;;;5.97;54.25
71795;BME280;59641;45.188;5.712;2023-01-29T04:23:51;100186.81;;;5.98;54.16
71795;BME280;59641;45.188;5.712;2023-01-29T04:32:25;100191.53;;;5.96;54.13
71795;BME280;59641;45.188;5.712;2023-01-29T04:37:40;100179.34;;;5.94;53.98
71795;BME280;59641;45.188;5.712;2023-01-29T04:40:19;100180.47;;;5.91;53.68
71795;BME280;59641;45.188;5.712;2023-01-29T04:45:38;100179.84;;;5.89;53.69
71795;BME280;59641;45.188;5.712;2023-01-29T04:48:21;100171.00;;;5.89;53.48
71795;BME280;59641;45.188;5.712;2023-01-29T04:54:27;100164.69;;;5.82;53.43
71795;BME280;59641;45.188;5.712;2023-01-29T04:59:47;100162.72;;;5.75;53.25
71795;BME280;59641;45.188;5.712;2023-01-29T05:02:16;100169.22;;;5.73;53.38
71795;BME280;59641;45.188;5.712;2023-01-29T05:04:42;100172.69;;;5.73;53.33
71795;BME280;59641;45.188;5.712;2023-01-29T05:07:12;100169.88;;;5.75;53.21
71795;BME280;59641;45.188;5.712;2023-01-29T05:09:41;100167.38;;;5.73;53.15
71795;BME280;59641;45.188;5.712;2023-01-29T05:12:09;100176.03;;;5.75;53.30
71795;BME280;59641;45.188;5.712;2023-01-29T05:14:36;100164.56;;;5.75;53.13
71795;BME280;59641;45.188;5.712;2023-01-29T05:17:09;100167.03;;;5.76;52.94
71795;BME280;59641;45.188;5.712;2023-01-29T05:19:37;100172.19;;;5.78;53.06
71795;BME280;59641;45.188;5.712;2023-01-29T05:22:04;100173.03;;;5.79;52.78
71795;BME280;59641;45.188;5.712;2023-01-29T05:24:30;100176.50;;;5.79;52.70
71795;BME280;59641;45.188;5.712;2023-01-29T05:26:55;100180.00;;;5.80;52.78
71795;BME280;59641;45.188;5.712;2023-01-29T05:29:44;100181.00;;;5.79;52.42
71795;BME280;59641;45.188;5.712;2023-01-29T05:32:10;100176.19;;;5.74;52.32
71795;BME280;59641;45.188;5.712;2023-01-29T05:34:35;100174.53;;;5.73;52.07
71795;BME280;59641;45.188;5.712;2023-01-29T05:37:01;100182.03;;;5.69;51.32
71795;BME280;59641;45.188;5.712;2023-01-29T05:39:26;100180.34;;;5.60;51.59
71795;BME280;59641;45.188;5.712;2023-01-29T05:41:52;100184.53;;;5.46;51.24
71795;BME280;59641;45.188;5.712;2023-01-29T05:44:17;100188.69;;;5.41;51.45
71795;BME280;59641;45.188;5.712;2023-01-29T05:46:43;100195.50;;;5.35;51.04
71795;BME280;59641;45.188;5.712;2023-01-29T05:49:09;100196.69;;;5.32;51.50
71795;BME280;59641;45.188;5.712;2023-01-29T05:51:34;100200.50;;;5.30;51.78
71795;BME280;59641;45.188;5.712;2023-01-29T05:53:59;100203.16;;;5.30;51.57
71795;BME280;59641;45.188;5.712;2023-01-29T05:56:25;100207.31;;;5.32;51.92
71795;BME280;59641;45.188;5.712;2023-01-29T05:58:51;100210.81;;;5.33;51.71
71795;BME280;59641;45.188;5.712;2023-01-29T06:01:19;100214.28;;;5.33;51.69
71795;BME280;59641;45.188;5.712;2023-01-29T06:03:45;100224.94;;;5.33;51.39
71795;BME280;59641;45.188;5.712;2023-01-29T06:06:10;100214.78;;;5.29;51.43
71795;BME280;59641;45.188;5.712;2023-01-29T06:08:36;100219.13;;;5.30;51.20
71795;BME280;59641;45.188;5.712;2023-01-29T06:11:02;100224.59;;;5.28;51.51
71795;BME280;59641;45.188;5.712;2023-01-29T06:13:27;100222.63;;;5.30;51.61
71795;BME280;59641;45.188;5.712;2023-01-29T06:15:52;100228.94;;;5.29;51.14
71795;BME280;59641;45.188;5.712;2023-01-29T06:18:18;100230.75;;;5.29;51.28
71795;BME280;59641;45.188;5.712;2023-01-29T06:20:43;100231.75;;;5.28;51.29
71795;BME280;59641;45.188;5.712;2023-01-29T06:23:09;100225.63;;;5.27;51.13
71795;BME280;59641;45.188;5.712;2023-01-29T06:25:34;100233.75;;;5.26;50.95
71795;BME280;59641;45.188;5.712;2023-01-29T06:27:59;100236.25;;;5.27;50.85
71795;BME280;59641;45.188;5.712;2023-01-29T06:30:25;100236.41;;;5.26;51.04
71795;BME280;59641;45.188;5.712;2023-01-29T06:32:54;100239.91;;;5.26;50.85
71795;BME280;59641;45.188;5.712;2023-01-29T06:35:20;100246.06;;;5.27;50.74
71795;BME280;59641;45.188;5.712;2023-01-29T06:37:45;100244.41;;;5.26;50.53
71795;BME280;59641;45.188;5.712;2023-01-29T06:40:11;100249.03;;;5.24;50.72
71795;BME280;59641;45.188;5.712;2023-01-29T06:42:36;100251.03;;;5.22;50.60
71795;BME280;59641;45.188;5.712;2023-01-29T06:45:02;100266.16;;;5.21;50.72
71795;BME280;59641;45.188;5.712;2023-01-29T06:47:27;100264.53;;;5.20;50.78
71795;BME280;59641;45.188;5.712;2023-01-29T06:49:53;100270.16;;;5.17;50.75
71795;BME280;59641;45.188;5.712;2023-01-29T06:52:18;100274.81;;;5.15;50.70
71795;BME280;59641;45.188;5.712;2023-01-29T06:54:43;100289.09;;;5.14;50.63
71795;BME280;59641;45.188;5.712;2023-01-29T06:57:09;100296.41;;;5.12;50.60
71795;BME280;59641;45.188;5.712;2023-01-29T06:59:34;100292.09;;;5.11;50.82
71795;BME280;59641;45.188;5.712;2023-01-29T07:01:59;100307.38;;;5.09;51.00
71795;BME280;59641;45.188;5.712;2023-01-29T07:04:25;100312.84;;;5.07;50.76
71795;BME280;59641;45.188;5.712;2023-01-29T07:06:50;100318.16;;;5.07;50.74
71795;BME280;59641;45.188;5.712;2023-01-29T07:09:15;100321.50;;;5.09;50.82
71795;BME280;59641;45.188;5.712;2023-01-29T07:11:41;100326.81;;;5.09;50.69
71795;BME280;59641;45.188;5.712;2023-01-29T07:14:06;100323.34;;;5.09;50.87
71795;BME280;59641;45.188;5.712;2023-01-29T07:16:32;100329.66;;;5.08;50.72
71795;BME280;59641;45.188;5.712;2023-01-29T07:18:57;100329.81;;;5.06;50.77
71795;BME280;59641;45.188;5.712;2023-01-29T07:21:23;100327.16;;;5.06;50.82
71795;BME280;59641;45.188;5.712;2023-01-29T07:23:49;100334.13;;;5.07;50.74
71795;BME280;59641;45.188;5.712;2023-01-29T07:26:15;100333.97;;;5.09;50.45
71795;BME280;59641;45.188;5.712;2023-01-29T07:28:40;100329.31;;;5.03;50.50
71795;BME280;59641;45.188;5.712;2023-01-29T07:31:06;100326.97;;;5.00;50.65
71795;BME280;59641;45.188;5.712;2023-01-29T07:33:32;100329.63;;;5.00;50.70
71795;BME280;59641;45.188;5.712;2023-01-29T07:35:57;100329.94;;;4.97;50.42
71795;BME280;59641;45.188;5.712;2023-01-29T07:38:23;100333.44;;;4.97;50.60
71795;BME280;59641;45.188;5.712;2023-01-29T07:40:51;100343.41;;;4.95;50.63
71795;BME280;59641;45.188;5.712;2023-01-29T07:43:16;100346.91;;;4.96;50.51
71795;BME280;59641;45.188;5.712;2023-01-29T07:45:42;100343.25;;;4.97;50.36
71795;BME280;59641;45.188;5.712;2023-01-29T07:48:10;100343.41;;;4.95;50.38
71795;BME280;59641;45.188;5.712;2023-01-29T07:50:36;100349.88;;;4.93;50.32
71795;BME280;59641;45.188;5.712;2023-01-29T07:53:02;100347.06;;;4.94;50.63
71795;BME280;59641;45.188;5.712;2023-01-29T07:55:28;100348.06;;;4.93;50.50
71795;BME280;59641;45.188;5.712;2023-01-29T07:57:57;100353.22;;;4.95;50.79
71795;BME280;59641;45.188;5.712;2023-01-29T08:00:23;100354.56;;;4.99;50.60
71795;BME280;59641;45.188;5.712;2023-01-29T08:02:48;100356.91;;;5.02;50.63
71795;BME280;59641;45.188;5.712;2023-01-29T08:05:14;100373.38;;;5.05;50.50
71795;BME280;59641;45.188;5.712;2023-01-29T08:07:39;100386.38;;;5.08;50.50
71795;BME280;59641;45.188;5.712;2023-01-29T08:10:04;100387.88;;;5.11;50.77
71795;BME280;59641;45.188;5.712;2023-01-29T08:12:30;100394.56;;;5.15;50.48
71795;BME280;59641;45.188;5.712;2023-01-29T08:14:55;100399.41;;;5.20;50.41
71795;BME280;59641;45.188;5.712;2023-01-29T08:17:21;100400.91;;;5.22;50.52
71795;BME280;59641;45.188;5.712;2023-01-29T08:19:46;100402.56;;;5.23;50.50
71795;BME280;59641;45.188;5.712;2023-01-29T08:22:11;100403.38;;;5.24;50.45
71795;BME280;59641;45.188;5.712;2023-01-29T08:24:37;100399.75;;;5.25;50.43
71795;BME280;59641;45.188;5.712;2023-01-29T08:27:02;100402.41;;;5.25;50.24
71795;BME280;59641;45.188;5.712;2023-01-29T08:29:27;100405.22;;;5.23;50.07
71795;BME280;59641;45.188;5.712;2023-01-29T08:31:53;100402.72;;;5.22;50.10
71795;BME280;59641;45.188;5.712;2023-01-29T08:34:18;100401.88;;;5.21;50.19
71795;BME280;59641;45.188;5.712;2023-01-29T08:36:44;100400.91;;;5.22;50.09
71795;BME280;59641;45.188;5.712;2023-01-29T08:39:09;100400.72;;;5.24;50.20
71795;BME280;59641;45.188;5.712;2023-01-29T08:41:34;100396.06;;;5.26;50.06
71795;BME280;59641;45.188;5.712;2023-01-29T08:44:00;100394.91;;;5.28;50.05
71795;BME280;59641;45.188;5.712;2023-01-29T08:46:28;100387.75;;;5.29;49.95
71795;BME280;59641;45.188;5.712;2023-01-29T08:48:53;100388.91;;;5.26;49.53
71795;BME280;59641;45.188;5.712;2023-01-29T08:51:19;100379.13;;;5.27;49.83
71795;BME280;59641;45.188;5.712;2023-01-29T08:53:45;100384.59;;;5.25;49.52
71795;BME280;59641;45.188;5.712;2023-01-29T08:56:10;100381.59;;;5.20;49.42
71795;BME280;59641;45.188;5.712;2023-01-29T08:58:35;100371.09;;;5.19;49.61
71795;BME280;59641;45.188;5.712;2023-01-29T09:01:05;100376.59;;;5.17;49.65
71795;BME280;59641;45.188;5.712;2023-01-29T09:03:30;100367.63;;;5.18;49.42
71795;BME280;59641;45.188;5.712;2023-01-29T09:05:56;100358.63;;;5.19;49.46
71795;BME280;59641;45.188;5.712;2023-01-29T09:08:21;100354.47;;;5.17;49.41
71795;BME280;59641;45.188;5.712;2023-01-29T09:10:47;100356.44;;;5.15;49.67
71795;BME280;59641;45.188;5.712;2023-01-29T09:13:12;100350.28;;;5.14;49.56
71795;BME280;59641;45.188;5.712;2023-01-29T09:15:37;100343.81;;;5.17;49.50
71795;BME280;59641;45.188;5.712;2023-01-29T09:18:04;100357.13;;;5.17;49.38
71795;BME280;59641;45.188;5.712;2023-01-29T09:20:29;100349.81;;;5.19;49.37
71795;BME280;59641;45.188;5.712;2023-01-29T09:22:55;100354.31;;;5.18;48.39
71795;BME280;59641;45.188;5.712;2023-01-29T09:25:21;100353.44;;;5.09;48.52
71795;BME280;59641;45.188;5.712;2023-01-29T09:27:46;100361.88;;;5.05;49.10
71795;BME280;59641;45.188;5.712;2023-01-29T09:30:12;100360.91;;;5.06;49.07
71795;BME280;59641;45.188;5.712;2023-01-29T09:32:37;100364.25;;;5.08;48.42
71795;BME280;59641;45.188;5.712;2023-01-29T09:35:03;100369.88;;;5.05;48.91
71795;BME280;59641;45.188;5.712;2023-01-29T09:37:28;100372.53;;;5.05;48.86
71795;BME280;59641;45.188;5.712;2023-01-29T09:39:54;100377.84;;;5.05;49.06
71795;BME280;59641;45.188;5.712;2023-01-29T09:42:39;100384.53;;;5.09;49.44
71795;BME280;59641;45.188;5.712;2023-01-29T09:45:20;100389.91;;;5.17;49.46
71795;BME280;59641;45.188;5.712;2023-01-29T09:47:49;100388.28;;;5.24;49.39
71795;BME280;59641;45.188;5.712;2023-01-29T09:50:30;100390.44;;;5.29;49.46
71795;BME280;59641;45.188;5.712;2023-01-29T09:53:06;100398.47;;;5.37;49.61
71795;BME280;59641;45.188;5.712;2023-01-29T09:55:45;100395.13;;;5.43;49.68
71795;BME280;59641;45.188;5.712;2023-01-29T09:58:42;100399.69;;;5.51;49.65
71795;BME280;59641;45.188;5.712;2023-01-29T10:01:37;100400.69;;;5.58;49.77
71795;BME280;59641;45.188;5.712;2023-01-29T10:25:40;100407.38;;;5.70;50.03
71795;BME280;59641;45.188;5.712;2023-01-29T10:28:17;100410.53;;;5.74;50.06
71795;BME280;59641;45.188;5.712;2023-01-29T10:30:47;100404.72;;;5.79;49.95
71795;BME280;59641;45.188;5.712;2023-01-29T10:33:36;100407.41;;;5.87;50.14
71795;BME280;59641;45.188;5.712;2023-01-29T10:36:08;100401.44;;;5.93;50.20
71795;BME280;59641;45.188;5.712;2023-01-29T10:38:49;100397.16;;;6.00;50.39
71795;BME280;59641;45.188;5.712;2023-01-29T10:41:25;100387.50;;;6.07;50.24
71795;BME280;59641;45.188;5.712;2023-01-29T10:44:13;100386.84;;;6.13;50.24
71795;BME280;59641;45.188;5.712;2023-01-29T11:02:16;100370.00;;;6.29;49.32
71795;BME280;59641;45.188;5.712;2023-01-29T11:04:42;100373.69;;;6.28;49.40
71795;BME280;59641;45.188;5.712;2023-01-29T11:07:08;100368.34;;;6.28;49.32
71795;BME280;59641;45.188;5.712;2023-01-29T11:09:41;100368.34;;;6.28;49.23
71795;BME280;59641;45.188;5.712;2023-01-29T11:12:16;100371.00;;;6.28;49.08
71795;BME280;59641;45.188;5.712;2023-01-29T11:17:24;100367.00;;;6.32;47.92
71795;BME280;59641;45.188;5.712;2023-01-29T11:19:51;100368.03;;;6.23;48.04
71795;BME280;59641;45.188;5.712;2023-01-29T11:22:19;100365.00;;;6.26;48.30
71795;BME280;59641;45.188;5.712;2023-01-29T11:24:46;100359.53;;;6.28;48.32
71795;BME280;59641;45.188;5.712;2023-01-29T11:27:22;100361.84;;;6.31;48.25
71795;BME280;59641;45.188;5.712;2023-01-29T11:29:51;100362.53;;;6.33;48.39
71795;BME280;59641;45.188;5.712;2023-01-29T11:37:37;100365.16;;;6.41;48.23
71795;BME280;59641;45.188;5.712;2023-01-29T11:42:44;100359.66;;;6.51;47.73
71795;BME280;59641;45.188;5.712;2023-01-29T11:47:48;100360.63;;;6.58;47.76
71795;BME280;59641;45.188;5.712;2023-01-29T11:50:32;100360.47;;;6.59;47.86
71795;BME280;59641;45.188;5.712;2023-01-29T11:52:58;100363.63;;;6.63;47.90
71795;BME280;59641;45.188;5.712;2023-01-29T11:55:26;100361.47;;;6.67;47.77
71795;BME280;59641;45.188;5.712;2023-01-29T11:58:03;100357.94;;;6.66;47.71
71795;BME280;59641;45.188;5.712;2023-01-29T12:00:32;100349.63;;;6.69;47.38
71795;BME280;59641;45.188;5.712;2023-01-29T12:05:31;100352.44;;;6.68;47.60
71795;BME280;59641;45.188;5.712;2023-01-29T12:07:59;100346.97;;;6.69;47.59
71795;BME280;59641;45.188;5.712;2023-01-29T12:10:32;100349.44;;;6.71;47.42
71795;BME280;59641;45.188;5.712;2023-01-29T12:15:33;100342.41;;;6.78;46.85
71795;BME280;59641;45.188;5.712;2023-01-29T12:20:32;100340.25;;;6.73;47.11
71795;BME280;59641;45.188;5.712;2023-01-29T12:25:58;100346.09;;;6.77;47.02
71795;BME280;59641;45.188;5.712;2023-01-29T12:28:36;100347.75;;;6.78;47.18
71795;BME280;59641;45.188;5.712;2023-01-29T12:33:52;100341.25;;;6.80;45.99
71795;BME280;59641;45.188;5.712;2023-01-29T12:36:28;100345.94;;;6.70;46.42
71795;BME280;59641;45.188;5.712;2023-01-29T12:38:56;100347.94;;;6.68;46.51
71795;BME280;59641;45.188;5.712;2023-01-29T12:42:00;100340.28;;;6.65;46.22
71795;BME280;59641;45.188;5.712;2023-01-29T12:44:51;100342.28;;;6.63;46.58
71795;BME280;59641;45.188;5.712;2023-01-29T12:49:56;100345.63;;;6.65;46.54
71795;BME280;59641;45.188;5.712;2023-01-29T12:52:42;100339.63;;;6.63;46.12
71795;BME280;59641;45.188;5.712;2023-01-29T12:55:31;100342.97;;;6.65;46.25
71795;BME280;59641;45.188;5.712;2023-01-29T12:58:03;100339.28;;;6.66;46.43
71795;BME280;59641;45.188;5.712;2023-01-29T13:00:37;100343.63;;;6.67;45.87
71795;BME280;59641;45.188;5.712;2023-01-29T13:03:22;100331.28;;;6.66;45.39
71795;BME280;59641;45.188;5.712;2023-01-29T13:05:51;100329.47;;;6.67;45.85
71795;BME280;59641;45.188;5.712;2023-01-29T13:10:53;100315.47;;;6.65;45.68
71795;BME280;59641;45.188;5.712;2023-01-29T13:13:41;100305.47;;;6.67;45.91
71795;BME280;59641;45.188;5.712;2023-01-29T13:16:11;100310.44;;;6.70;45.70
71795;BME280;59641;45.188;5.712;2023-01-29T13:18:43;100303.94;;;6.72;45.95
71795;BME280;59641;45.188;5.712;2023-01-29T13:21:17;100299.56;;;6.79;45.93
71795;BME280;59641;45.188;5.712;2023-01-29T13:23:56;100299.88;;;6.85;45.76
71795;BME280;59641;45.188;5.712;2023-01-29T13:26:24;100291.19;;;6.91;45.98
71795;BME280;59641;45.188;5.712;2023-01-29T13:28:51;100289.50;;;6.98;45.73
71795;BME280;59641;45.188;5.712;2023-01-29T13:33:54;100281.09;;;7.09;45.71
71795;BME280;59641;45.188;5.712;2023-01-29T13:36:25;100287.75;;;7.13;45.71
71795;BME280;59641;45.188;5.712;2023-01-29T13:39:04;100292.94;;;7.15;45.26
71795;BME280;59641;45.188;5.712;2023-01-29T13:41:32;100289.06;;;7.17;45.48
71795;BME280;59641;45.188;5.712;2023-01-29T13:43:58;100288.06;;;7.18;45.27
71795;BME280;59641;45.188;5.712;2023-01-29T13:46:24;100288.72;;;7.20;45.45
71795;BME280;59641;45.188;5.712;2023-01-29T13:48:50;100281.88;;;7.18;45.02
71795;BME280;59641;45.188;5.712;2023-01-29T13:51:28;100276.38;;;7.19;45.00
71795;BME280;59641;45.188;5.712;2023-01-29T13:54:05;100272.03;;;7.18;44.85
71795;BME280;59641;45.188;5.712;2023-01-29T13:58:58;100278.69;;;7.22;45.01
71795;BME280;59641;45.188;5.712;2023-01-29T14:04:30;100278.34;;;7.25;44.70
71795;BME280;59641;45.188;5.712;2023-01-29T14:06:57;100275.50;;;7.27;44.90
71795;BME280;59641;45.188;5.712;2023-01-29T14:12:01;100266.97;;;7.32;44.92
71795;BME280;59641;45.188;5.712;2023-01-29T14:17:24;100263.13;;;7.34;44.67
71795;BME280;59641;45.188;5.712;2023-01-29T14:20:03;100266.59;;;7.35;44.89
71795;BME280;59641;45.188;5.712;2023-01-29T14:22:41;100264.59;;;7.37;44.64
71795;BME280;59641;45.188;5.712;2023-01-29T14:25:16;100258.06;;;7.39;44.72
71795;BME280;59641;45.188;5.712;2023-01-29T14:27:47;100258.44;;;7.36;44.39
71795;BME280;59641;45.188;5.712;2023-01-29T14:30:16;100257.41;;;7.37;44.50
71795;BME280;59641;45.188;5.712;2023-01-29T14:32:47;100262.38;;;7.40;44.68
71795;BME280;59641;45.188;5.712;2023-01-29T14:35:23;100267.41;;;7.43;44.80
71795;BME280;59641;45.188;5.712;2023-01-29T14:37:52;100254.03;;;7.43;44.96
71795;BME280;59641;45.188;5.712;2023-01-29T14:45:38;100257.84;;;7.49;44.90
71795;BME280;59641;45.188;5.712;2023-01-29T14:58:18;100261.63;;;7.55;44.57
71795;BME280;59641;45.188;5.712;2023-01-29T15:00:49;100258.94;;;7.55;44.61
71795;BME280;59641;45.188;5.712;2023-01-29T15:03:32;100263.31;;;7.56;44.35
71795;BME280;59641;45.188;5.712;2023-01-29T15:06:00;100263.31;;;7.56;44.85
71795;BME280;59641;45.188;5.712;2023-01-29T15:08:37;100262.28;;;7.57;44.55
71795;BME280;59641;45.188;5.712;2023-01-29T15:11:16;100264.94;;;7.57;44.71
71795;BME280;59641;45.188;5.712;2023-01-29T15:14:07;100262.66;;;7.54;44.66
71795;BME280;59641;45.188;5.712;2023-01-29T15:16:55;100255.63;;;7.53;44.63
71795;BME280;59641;45.188;5.712;2023-01-29T15:19:28;100256.66;;;7.52;44.54
71795;BME280;59641;45.188;5.712;2023-01-29T15:24:27;100267.50;;;7.50;44.47
71795;BME280;59641;45.188;5.712;2023-01-29T15:26:53;100266.00;;;7.47;44.53
71795;BME280;59641;45.188;5.712;2023-01-29T15:29:26;100277.56;;;7.48;44.39
71795;BME280;59641;45.188;5.712;2023-01-29T15:31:53;100273.19;;;7.47;44.51
71795;BME280;59641;45.188;5.712;2023-01-29T15:34:18;100269.53;;;7.48;44.70
71795;BME280;59641;45.188;5.712;2023-01-29T15:36:46;100275.03;;;7.46;44.57
71795;BME280;59641;45.188;5.712;2023-01-29T15:39:16;100268.88;;;7.46;44.68
71795;BME280;59641;45.188;5.712;2023-01-29T15:41:43;100271.53;;;7.46;44.68
71795;BME280;59641;45.188;5.712;2023-01-29T15:44:15;100273.38;;;7.45;44.65